sensor_id;sensor_type;location;lat;lon;timestamp;pressure;altitude;pressure_sealevel;temperature;humidity
76024;BME280;64719;52.124;6.226;2022-12-10T00:01:23;100985.50;;;-3.86;100.00
76024;BME280;64719;52.124;6.226;2022-12-10T00:03:51;100991.03;;;-3.98;100.00
76024;BME280;64719;52.124;6.226;2022-12-10T00:06:19;100984.22;;;-3.91;100.00
76024;BME280;64719;52.124;6.226;2022-12-10T00:08:46;100985.91;;;-3.90;100.00
76024;BME280;64719;52.124;6.226;2022-12-10T00:11:14;100984.91;;;-3.99;100.00
76024;BME280;64719;52.124;6.226;2022-12-10T00:13:43;100982.13;;;-3.97;100.00
76024;BME280;64719;52.124;6.226;2022-12-10T00:16:13;100990.75;;;-4.05;100.00
76024;BME280;64719;52.124;6.226;2022-12-10T00:18:40;100992.16;;;-3.91;100.00
76024;BME280;64719;52.124;6.226;2022-12-10T00:21:10;100996.63;;;-4.01;100.00
76024;BME280;64719;52.124;6.226;2022-12-10T00:23:38;100993.53;;;-4.06;100.00
76024;BME280;64719;52.124;6.226;2022-12-10T00:26:06;100997.31;;;-3.99;100.00
76024;BME280;64719;52.124;6.226;2022-12-10T00:28:33;100994.94;;;-4.02;100.00
76024;BME280;64719;52.124;6.226;2022-12-10T00:31:04;100985.97;;;-4.11;100.00
76024;BME280;64719;52.124;6.226;2022-12-10T00:33:31;100995.38;;;-3.97;100.00
76024;BME280;64719;52.124;6.226;2022-12-10T00:36:01;100992.56;;;-4.05;100.00
76024;BME280;64719;52.124;6.226;2022-12-10T00:38:30;100996.31;;;-4.08;100.00
76024;BME280;64719;52.124;6.226;2022-12-10T00:40:57;100994.81;;;-3.91;100.00
76024;BME280;64719;52.124;6.226;2022-12-10T00:43:23;100993.69;;;-3.98;100.00
76024;BME280;64719;52.124;6.226;2022-12-10T00:45:50;100987.81;;;-4.11;100.00
76024;BME280;64719;52.124;6.226;2022-12-10T00:48:16;100994.69;;;-3.99;100.00
76024;BME280;64719;52.124;6.226;2022-12-10T00:50:43;101007.63;;;-4.06;100.00
76024;BME280;64719;52.124;6.226;2022-12-10T00:53:09;100996.16;;;-4.06;100.00
76024;BME280;64719;52.124;6.226;2022-12-10T00:55:37;101000.66;;;-4.07;100.00
76024;BME280;64719;52.124;6.226;2022-12-10T00:58:04;101000.06;;;-4.10;100.00
76024;BME280;64719;52.124;6.226;2022-12-10T01:00:30;101008.34;;;-3.94;100.00
76024;BME280;64719;52.124;6.226;2022-12-10T01:02:57;101007.41;;;-3.74;100.00
76024;BME280;64719;52.124;6.226;2022-12-10T01:05:24;101012.72;;;-3.84;100.00
76024;BME280;64719;52.124;6.226;2022-12-10T01:07:51;101007.00;;;-3.79;100.00
76024;BME280;64719;52.124;6.226;2022-12-10T01:10:21;101009.00;;;-3.52;100.00
76024;BME280;64719;52.124;6.226;2022-12-10T01:12:49;101007.06;;;-3.50;100.00
76024;BME280;64719;52.124;6.226;2022-12-10T01:15:15;101010.81;;;-3.43;100.00
76024;BME280;64719;52.124;6.226;2022-12-10T01:17:42;101014.59;;;-3.46;100.00
76024;BME280;64719;52.124;6.226;2022-12-10T01:20:10;101015.44;;;-3.55;100.00
76024;BME280;64719;52.124;6.226;2022-12-10T01:22:37;101014.97;;;-3.69;100.00
76024;BME280;64719;52.124;6.226;2022-12-10T01:25:05;101024.19;;;-3.73;100.00
76024;BME280;64719;52.124;6.226;2022-12-10T01:27:31;101015.53;;;-3.66;100.00
76024;BME280;64719;52.124;6.226;2022-12-10T01:29:59;101011.06;;;-3.56;100.00
76024;BME280;64719;52.124;6.226;2022-12-10T01:32:26;101023.09;;;-3.61;100.00
76024;BME280;64719;52.124;6.226;2022-12-10T01:34:52;101018.47;;;-3.69;100.00
76024;BME280;64719;52.124;6.226;2022-12-10T01:37:19;101021.13;;;-3.69;100.00
76024;BME280;64719;52.124;6.226;2022-12-10T01:39:46;101019.59;;;-3.62;100.00
76024;BME280;64719;52.124;6.226;2022-12-10T01:42:13;101021.41;;;-3.62;100.00
76024;BME280;64719;52.124;6.226;2022-12-10T01:45:04;101024.34;;;-3.46;100.00
76024;BME280;64719;52.124;6.226;2022-12-10T01:47:31;101029.22;;;-3.51;100.00
76024;BME280;64719;52.124;6.226;2022-12-10T01:49:58;101026.97;;;-3.56;100.00
76024;BME280;64719;52.124;6.226;2022-12-10T01:52:26;101029.94;;;-3.49;100.00
76024;BME280;64719;52.124;6.226;2022-12-10T01:54:53;101035.78;;;-3.55;100.00
76024;BME280;64719;52.124;6.226;2022-12-10T01:57:21;101030.72;;;-3.68;100.00
76024;BME280;64719;52.124;6.226;2022-12-10T01:59:51;101021.66;;;-3.75;100.00
76024;BME280;64719;52.124;6.226;2022-12-10T02:02:27;101032.44;;;-3.67;100.00
76024;BME280;64719;52.124;6.226;2022-12-10T02:05:02;101036.56;;;-3.84;100.00
76024;BME280;64719;52.124;6.226;2022-12-10T02:07:39;101035.41;;;-3.91;100.00
76024;BME280;64719;52.124;6.226;2022-12-10T02:10:15;101036.56;;;-3.84;100.00
76024;BME280;64719;52.124;6.226;2022-12-10T02:12:49;101036.09;;;-3.98;100.00
76024;BME280;64719;52.124;6.226;2022-12-10T02:15:21;101028.22;;;-4.09;100.00
76024;BME280;64719;52.124;6.226;2022-12-10T02:17:52;101029.53;;;-4.04;100.00
76024;BME280;64719;52.124;6.226;2022-12-10T02:20:23;101024.31;;;-4.15;100.00
76024;BME280;64719;52.124;6.226;2022-12-10T02:22:57;101028.09;;;-4.08;100.00
76024;BME280;64719;52.124;6.226;2022-12-10T02:25:28;101022.19;;;-4.21;100.00
76024;BME280;64719;52.124;6.226;2022-12-10T02:28:03;101029.00;;;-4.28;100.00
76024;BME280;64719;52.124;6.226;2022-12-10T02:30:34;101023.13;;;-4.31;100.00
76024;BME280;64719;52.124;6.226;2022-12-10T02:33:05;101023.41;;;-4.34;100.00
76024;BME280;64719;52.124;6.226;2022-12-10T02:35:34;101032.47;;;-4.37;100.00
76024;BME280;64719;52.124;6.226;2022-12-10T02:38:07;101032.19;;;-4.34;100.00
76024;BME280;64719;52.124;6.226;2022-12-10T02:40:37;101029.44;;;-4.23;100.00
76024;BME280;64719;52.124;6.226;2022-12-10T02:43:06;101026.75;;;-4.32;100.00
76024;BME280;64719;52.124;6.226;2022-12-10T02:45:35;101020.13;;;-4.47;100.00
76024;BME280;64719;52.124;6.226;2022-12-10T02:48:03;101027.28;;;-4.38;100.00
76024;BME280;64719;52.124;6.226;2022-12-10T02:50:30;101025.69;;;-4.50;100.00
76024;BME280;64719;52.124;6.226;2022-12-10T02:52:57;101026.09;;;-4.55;100.00
76024;BME280;64719;52.124;6.226;2022-12-10T02:55:24;101021.81;;;-4.46;100.00
76024;BME280;64719;52.124;6.226;2022-12-10T02:58:03;101029.44;;;-4.53;100.00
76024;BME280;64719;52.124;6.226;2022-12-10T03:00:38;101021.75;;;-4.56;100.00
76024;BME280;64719;52.124;6.226;2022-12-10T03:03:18;101024.78;;;-4.60;100.00
76024;BME280;64719;52.124;6.226;2022-12-10T03:05:53;101024.00;;;-4.51;100.00
76024;BME280;64719;52.124;6.226;2022-12-10T03:08:25;101026.13;;;-4.45;100.00
76024;BME280;64719;52.124;6.226;2022-12-10T03:10:57;101028.38;;;-4.41;100.00
76024;BME280;64719;52.124;6.226;2022-12-10T03:13:29;101024.13;;;-4.53;100.00
76024;BME280;64719;52.124;6.226;2022-12-10T03:15:59;101019.22;;;-4.57;100.00
76024;BME280;64719;52.124;6.226;2022-12-10T03:18:29;101021.06;;;-4.58;100.00
76024;BME280;64719;52.124;6.226;2022-12-10T03:21:01;101017.81;;;-4.61;100.00
76024;BME280;64719;52.124;6.226;2022-12-10T03:23:29;101015.31;;;-4.63;100.00
76024;BME280;64719;52.124;6.226;2022-12-10T03:25:58;101012.47;;;-4.71;100.00
76024;BME280;64719;52.124;6.226;2022-12-10T03:28:26;101015.44;;;-4.64;100.00
76024;BME280;64719;52.124;6.226;2022-12-10T03:30:55;101005.75;;;-4.75;100.00
76024;BME280;64719;52.124;6.226;2022-12-10T03:33:24;101005.38;;;-4.70;100.00
76024;BME280;64719;52.124;6.226;2022-12-10T03:35:51;101015.69;;;-4.67;100.00
76024;BME280;64719;52.124;6.226;2022-12-10T03:38:18;101001.72;;;-4.79;100.00
76024;BME280;64719;52.124;6.226;2022-12-10T03:40:45;101010.84;;;-4.83;100.00
76024;BME280;64719;52.124;6.226;2022-12-10T03:43:12;101015.84;;;-4.89;100.00
76024;BME280;64719;52.124;6.226;2022-12-10T03:45:39;101009.72;;;-4.90;100.00
76024;BME280;64719;52.124;6.226;2022-12-10T03:48:05;101015.06;;;-4.80;100.00
76024;BME280;64719;52.124;6.226;2022-12-10T03:50:33;101003.78;;;-4.82;100.00
76024;BME280;64719;52.124;6.226;2022-12-10T03:53:00;101009.59;;;-4.88;100.00
76024;BME280;64719;52.124;6.226;2022-12-10T03:55:26;101010.31;;;-4.86;100.00
76024;BME280;64719;52.124;6.226;2022-12-10T03:57:53;101011.06;;;-4.75;100.00
76024;BME280;64719;52.124;6.226;2022-12-10T04:00:20;101010.34;;;-4.77;100.00
76024;BME280;64719;52.124;6.226;2022-12-10T04:02:46;101014.22;;;-4.81;100.00
76024;BME280;64719;52.124;6.226;2022-12-10T04:05:13;101018.50;;;-4.89;100.00
76024;BME280;64719;52.124;6.226;2022-12-10T04:07:41;101023.78;;;-4.89;100.00
76024;BME280;64719;52.124;6.226;2022-12-10T04:10:08;101028.81;;;-4.86;100.00
76024;BME280;64719;52.124;6.226;2022-12-10T04:12:35;101028.69;;;-4.85;100.00
76024;BME280;64719;52.124;6.226;2022-12-10T04:15:02;101029.72;;;-4.76;100.00
76024;BME280;64719;52.124;6.226;2022-12-10T04:17:46;101028.88;;;-4.77;100.00
76024;BME280;64719;52.124;6.226;2022-12-10T04:20:13;101036.94;;;-4.58;100.00
76024;BME280;64719;52.124;6.226;2022-12-10T04:22:55;101042.88;;;-4.65;100.00
76024;BME280;64719;52.124;6.226;2022-12-10T04:25:39;101039.91;;;-4.72;100.00
76024;BME280;64719;52.124;6.226;2022-12-10T04:28:23;101038.16;;;-4.82;100.00
76024;BME280;64719;52.124;6.226;2022-12-10T04:30:49;101030.09;;;-4.81;100.00
76024;BME280;64719;52.124;6.226;2022-12-10T04:33:16;101032.50;;;-4.78;100.00
76024;BME280;64719;52.124;6.226;2022-12-10T04:35:42;101026.59;;;-4.81;100.00
76024;BME280;64719;52.124;6.226;2022-12-10T04:38:10;101023.00;;;-4.80;100.00
76024;BME280;64719;52.124;6.226;2022-12-10T04:40:37;101021.50;;;-4.73;100.00
76024;BME280;64719;52.124;6.226;2022-12-10T04:43:03;101020.09;;;-4.77;100.00
76024;BME280;64719;52.124;6.226;2022-12-10T04:45:30;101021.66;;;-4.75;100.00
76024;BME280;64719;52.124;6.226;2022-12-10T04:47:57;101022.75;;;-4.77;100.00
76024;BME280;64719;52.124;6.226;2022-12-10T04:50:23;101025.81;;;-4.72;100.00
76024;BME280;64719;52.124;6.226;2022-12-10T04:52:50;101034.63;;;-4.72;100.00
76024;BME280;64719;52.124;6.226;2022-12-10T04:55:18;101029.97;;;-4.79;100.00
76024;BME280;64719;52.124;6.226;2022-12-10T04:57:44;101034.34;;;-4.69;100.00
76024;BME280;64719;52.124;6.226;2022-12-10T05:00:12;101038.81;;;-4.69;100.00
76024;BME280;64719;52.124;6.226;2022-12-10T05:02:38;101030.81;;;-4.79;100.00
76024;BME280;64719;52.124;6.226;2022-12-10T05:05:06;101035.84;;;-4.76;100.00
76024;BME280;64719;52.124;6.226;2022-12-10T05:07:32;101039.56;;;-4.78;100.00
76024;BME280;64719;52.124;6.226;2022-12-10T05:09:59;101040.81;;;-4.82;100.00
76024;BME280;64719;52.124;6.226;2022-12-10T05:12:27;101035.66;;;-4.84;100.00
76024;BME280;64719;52.124;6.226;2022-12-10T05:14:54;101030.75;;;-4.88;100.00
76024;BME280;64719;52.124;6.226;2022-12-10T05:17:20;101044.22;;;-4.91;100.00
76024;BME280;64719;52.124;6.226;2022-12-10T05:19:47;101043.72;;;-4.85;100.00
76024;BME280;64719;52.124;6.226;2022-12-10T05:22:13;101041.13;;;-4.96;100.00
76024;BME280;64719;52.124;6.226;2022-12-10T05:24:58;101038.38;;;-4.74;100.00
76024;BME280;64719;52.124;6.226;2022-12-10T05:27:24;101036.03;;;-4.68;100.00
76024;BME280;64719;52.124;6.226;2022-12-10T05:29:52;101033.72;;;-4.61;100.00
76024;BME280;64719;52.124;6.226;2022-12-10T05:32:19;101040.38;;;-4.67;100.00
76024;BME280;64719;52.124;6.226;2022-12-10T05:34:45;101041.53;;;-4.80;100.00
76024;BME280;64719;52.124;6.226;2022-12-10T05:37:12;101045.19;;;-4.72;100.00
76024;BME280;64719;52.124;6.226;2022-12-10T05:39:38;101038.53;;;-4.66;100.00
76024;BME280;64719;52.124;6.226;2022-12-10T05:42:05;101041.91;;;-4.64;100.00
76024;BME280;64719;52.124;6.226;2022-12-10T05:44:31;101041.44;;;-4.49;100.00
76024;BME280;64719;52.124;6.226;2022-12-10T05:46:59;101049.03;;;-4.35;100.00
76024;BME280;64719;52.124;6.226;2022-12-10T05:49:26;101039.53;;;-4.07;100.00
76024;BME280;64719;52.124;6.226;2022-12-10T05:51:54;101031.47;;;-4.06;100.00
76024;BME280;64719;52.124;6.226;2022-12-10T05:54:21;101040.75;;;-3.81;100.00
76024;BME280;64719;52.124;6.226;2022-12-10T05:56:48;101043.00;;;-3.77;100.00
76024;BME280;64719;52.124;6.226;2022-12-10T05:59:14;101049.72;;;-3.63;100.00
76024;BME280;64719;52.124;6.226;2022-12-10T06:01:41;101057.09;;;-3.66;100.00
76024;BME280;64719;52.124;6.226;2022-12-10T06:04:09;101052.69;;;-3.56;100.00
76024;BME280;64719;52.124;6.226;2022-12-10T06:06:37;101046.97;;;-3.52;100.00
76024;BME280;64719;52.124;6.226;2022-12-10T06:09:06;101050.72;;;-3.54;100.00
76024;BME280;64719;52.124;6.226;2022-12-10T06:11:33;101045.28;;;-3.53;100.00
76024;BME280;64719;52.124;6.226;2022-12-10T06:14:00;101052.25;;;-3.42;100.00
76024;BME280;64719;52.124;6.226;2022-12-10T06:16:28;101046.00;;;-3.32;100.00
76024;BME280;64719;52.124;6.226;2022-12-10T06:18:56;101049.50;;;-3.22;100.00
76024;BME280;64719;52.124;6.226;2022-12-10T06:21:24;101048.69;;;-3.13;100.00
76024;BME280;64719;52.124;6.226;2022-12-10T06:23:51;101049.78;;;-3.06;100.00
76024;BME280;64719;52.124;6.226;2022-12-10T06:26:20;101053.84;;;-3.02;100.00
76024;BME280;64719;52.124;6.226;2022-12-10T06:28:47;101059.28;;;-2.94;100.00
76024;BME280;64719;52.124;6.226;2022-12-10T06:31:15;101055.66;;;-2.93;100.00
76024;BME280;64719;52.124;6.226;2022-12-10T06:33:42;101053.41;;;-2.88;100.00
76024;BME280;64719;52.124;6.226;2022-12-10T06:36:10;101059.72;;;-2.89;100.00
76024;BME280;64719;52.124;6.226;2022-12-10T06:38:38;101054.25;;;-2.87;100.00
76024;BME280;64719;52.124;6.226;2022-12-10T06:41:07;101063.47;;;-2.82;100.00
76024;BME280;64719;52.124;6.226;2022-12-10T06:43:34;101064.03;;;-2.78;100.00
76024;BME280;64719;52.124;6.226;2022-12-10T06:46:04;101063.91;;;-2.77;100.00
76024;BME280;64719;52.124;6.226;2022-12-10T06:48:31;101065.56;;;-2.76;100.00
76024;BME280;64719;52.124;6.226;2022-12-10T06:50:57;101069.06;;;-2.75;100.00
76024;BME280;64719;52.124;6.226;2022-12-10T06:53:24;101067.22;;;-2.75;100.00
76024;BME280;64719;52.124;6.226;2022-12-10T06:55:52;101077.28;;;-2.69;100.00
76024;BME280;64719;52.124;6.226;2022-12-10T06:58:18;101078.00;;;-2.67;100.00
76024;BME280;64719;52.124;6.226;2022-12-10T07:00:45;101083.31;;;-2.67;100.00
76024;BME280;64719;52.124;6.226;2022-12-10T07:03:11;101079.50;;;-2.64;100.00
76024;BME280;64719;52.124;6.226;2022-12-10T07:05:38;101082.03;;;-2.63;100.00
76024;BME280;64719;52.124;6.226;2022-12-10T07:08:04;101084.25;;;-2.58;100.00
76024;BME280;64719;52.124;6.226;2022-12-10T07:10:31;101091.69;;;-2.62;100.00
76024;BME280;64719;52.124;6.226;2022-12-10T07:12:59;101095.72;;;-2.58;100.00
76024;BME280;64719;52.124;6.226;2022-12-10T07:15:26;101098.94;;;-2.54;100.00
76024;BME280;64719;52.124;6.226;2022-12-10T07:17:53;101096.16;;;-2.53;100.00
76024;BME280;64719;52.124;6.226;2022-12-10T07:20:20;101102.31;;;-2.52;100.00
76024;BME280;64719;52.124;6.226;2022-12-10T07:22:46;101105.66;;;-2.50;100.00
76024;BME280;64719;52.124;6.226;2022-12-10T07:25:13;101107.34;;;-2.49;100.00
76024;BME280;64719;52.124;6.226;2022-12-10T07:27:39;101106.91;;;-2.45;100.00
76024;BME280;64719;52.124;6.226;2022-12-10T07:30:09;101111.38;;;-2.45;100.00
76024;BME280;64719;52.124;6.226;2022-12-10T07:32:35;101116.41;;;-2.42;100.00
76024;BME280;64719;52.124;6.226;2022-12-10T07:35:02;101112.63;;;-2.40;100.00
76024;BME280;64719;52.124;6.226;2022-12-10T07:37:29;101109.56;;;-2.45;100.00
76024;BME280;64719;52.124;6.226;2022-12-10T07:39:56;101119.22;;;-2.53;100.00
76024;BME280;64719;52.124;6.226;2022-12-10T07:42:22;101120.75;;;-2.51;100.00
76024;BME280;64719;52.124;6.226;2022-12-10T07:44:49;101116.84;;;-2.47;100.00
76024;BME280;64719;52.124;6.226;2022-12-10T07:47:17;101118.34;;;-2.44;100.00
76024;BME280;64719;52.124;6.226;2022-12-10T07:49:44;101118.34;;;-2.44;100.00
76024;BME280;64719;52.124;6.226;2022-12-10T07:52:11;101129.69;;;-2.42;100.00
76024;BME280;64719;52.124;6.226;2022-12-10T07:54:38;101134.72;;;-2.39;100.00
76024;BME280;64719;52.124;6.226;2022-12-10T07:57:04;101131.34;;;-2.41;100.00
76024;BME280;64719;52.124;6.226;2022-12-10T07:59:31;101131.63;;;-2.35;100.00
76024;BME280;64719;52.124;6.226;2022-12-10T08:01:57;101135.53;;;-2.29;100.00
76024;BME280;64719;52.124;6.226;2022-12-10T08:04:27;101139.03;;;-2.29;100.00
76024;BME280;64719;52.124;6.226;2022-12-10T08:06:54;101140.84;;;-2.29;100.00
76024;BME280;64719;52.124;6.226;2022-12-10T08:09:20;101140.59;;;-2.36;100.00
76024;BME280;64719;52.124;6.226;2022-12-10T08:11:47;101146.31;;;-2.31;100.00
76024;BME280;64719;52.124;6.226;2022-12-10T08:14:14;101160.84;;;-2.35;100.00
76024;BME280;64719;52.124;6.226;2022-12-10T08:16:40;101161.72;;;-2.34;100.00
76024;BME280;64719;52.124;6.226;2022-12-10T08:19:07;101160.28;;;-2.29;100.00
76024;BME280;64719;52.124;6.226;2022-12-10T08:21:35;101165.47;;;-2.27;100.00
76024;BME280;64719;52.124;6.226;2022-12-10T08:24:01;101168.13;;;-2.27;100.00
76024;BME280;64719;52.124;6.226;2022-12-10T08:26:30;101177.75;;;-2.26;100.00
76024;BME280;64719;52.124;6.226;2022-12-10T08:28:57;101174.16;;;-2.35;100.00
76024;BME280;64719;52.124;6.226;2022-12-10T08:31:25;101165.03;;;-2.32;100.00
76024;BME280;64719;52.124;6.226;2022-12-10T08:33:52;101168.25;;;-2.29;100.00
76024;BME280;64719;52.124;6.226;2022-12-10T08:36:19;101170.22;;;-2.31;100.00
76024;BME280;64719;52.124;6.226;2022-12-10T08:38:47;101170.34;;;-2.23;100.00
76024;BME280;64719;52.124;6.226;2022-12-10T08:41:16;101176.09;;;-2.27;100.00
76024;BME280;64719;52.124;6.226;2022-12-10T08:43:43;101177.63;;;-2.25;100.00
76024;BME280;64719;52.124;6.226;2022-12-10T08:46:11;101175.53;;;-2.12;100.00
76024;BME280;64719;52.124;6.226;2022-12-10T08:48:38;101186.16;;;-2.21;100.00
76024;BME280;64719;52.124;6.226;2022-12-10T08:51:07;101188.53;;;-2.18;100.00
76024;BME280;64719;52.124;6.226;2022-12-10T08:53:34;101189.66;;;-2.21;100.00
76024;BME280;64719;52.124;6.226;2022-12-10T08:56:02;101189.78;;;-2.13;100.00
76024;BME280;64719;52.124;6.226;2022-12-10T08:58:29;101184.22;;;-2.19;100.00
76024;BME280;64719;52.124;6.226;2022-12-10T09:00:55;101195.22;;;-2.14;100.00
76024;BME280;64719;52.124;6.226;2022-12-10T09:03:22;101197.47;;;-2.10;100.00
76024;BME280;64719;52.124;6.226;2022-12-10T09:05:49;101186.97;;;-2.02;100.00
76024;BME280;64719;52.124;6.226;2022-12-10T09:08:16;101194.94;;;-2.02;100.00
76024;BME280;64719;52.124;6.226;2022-12-10T09:10:43;101199.56;;;-2.04;100.00
76024;BME280;64719;52.124;6.226;2022-12-10T09:13:11;101202.50;;;-1.97;100.00
76024;BME280;64719;52.124;6.226;2022-12-10T09:15:38;101198.97;;;-1.98;100.00
76024;BME280;64719;52.124;6.226;2022-12-10T09:18:05;101197.03;;;-1.96;100.00
76024;BME280;64719;52.124;6.226;2022-12-10T09:20:31;101200.09;;;-1.91;100.00
76024;BME280;64719;52.124;6.226;2022-12-10T09:22:58;101202.75;;;-1.91;100.00
76024;BME280;64719;52.124;6.226;2022-12-10T09:25:25;101210.59;;;-1.89;100.00
76024;BME280;64719;52.124;6.226;2022-12-10T09:27:51;101201.78;;;-1.90;100.00
76024;BME280;64719;52.124;6.226;2022-12-10T09:30:19;101210.84;;;-1.83;100.00
76024;BME280;64719;52.124;6.226;2022-12-10T09:32:46;101206.50;;;-1.83;100.00
76024;BME280;64719;52.124;6.226;2022-12-10T09:35:12;101206.81;;;-1.87;100.00
76024;BME280;64719;52.124;6.226;2022-12-10T09:37:39;101222.31;;;-1.82;100.00
76024;BME280;64719;52.124;6.226;2022-12-10T09:40:06;101223.72;;;-1.78;100.00
76024;BME280;64719;52.124;6.226;2022-12-10T09:42:43;101223.47;;;-1.84;100.00
76024;BME280;64719;52.124;6.226;2022-12-10T09:45:20;101227.09;;;-1.86;100.00
76024;BME280;64719;52.124;6.226;2022-12-10T09:47:59;101216.88;;;-1.80;100.00
76024;BME280;64719;52.124;6.226;2022-12-10T09:50:31;101218.09;;;-1.75;100.00
76024;BME280;64719;52.124;6.226;2022-12-10T09:53:02;101214.22;;;-1.80;100.00
76024;BME280;64719;52.124;6.226;2022-12-10T09:55:32;101217.97;;;-1.73;100.00
76024;BME280;64719;52.124;6.226;2022-12-10T09:58:02;101215.28;;;-1.73;100.00
76024;BME280;64719;52.124;6.226;2022-12-10T10:00:35;101216.28;;;-1.74;100.00
76024;BME280;64719;52.124;6.226;2022-12-10T10:03:03;101221.03;;;-1.68;100.00
76024;BME280;64719;52.124;6.226;2022-12-10T10:05:34;101223.69;;;-1.59;100.00
76024;BME280;64719;52.124;6.226;2022-12-10T10:08:03;101219.81;;;-1.74;100.00
76024;BME280;64719;52.124;6.226;2022-12-10T10:10:32;101219.06;;;-1.66;100.00
76024;BME280;64719;52.124;6.226;2022-12-10T10:13:00;101230.28;;;-1.72;100.00
76024;BME280;64719;52.124;6.226;2022-12-10T10:15:32;101226.50;;;-1.70;100.00
76024;BME280;64719;52.124;6.226;2022-12-10T10:18:02;101230.28;;;-1.72;100.00
76024;BME280;64719;52.124;6.226;2022-12-10T10:20:31;101232.09;;;-1.73;100.00
76024;BME280;64719;52.124;6.226;2022-12-10T10:22:59;101225.91;;;-1.64;100.00
76024;BME280;64719;52.124;6.226;2022-12-10T10:25:26;101231.38;;;-1.65;100.00
76024;BME280;64719;52.124;6.226;2022-12-10T10:27:54;101223.81;;;-1.60;100.00
76024;BME280;64719;52.124;6.226;2022-12-10T10:30:22;101223.81;;;-1.60;100.00
76024;BME280;64719;52.124;6.226;2022-12-10T10:32:52;101228.00;;;-1.58;100.00
76024;BME280;64719;52.124;6.226;2022-12-10T10:35:22;101228.28;;;-1.61;100.00
76024;BME280;64719;52.124;6.226;2022-12-10T10:37:52;101233.44;;;-1.50;100.00
76024;BME280;64719;52.124;6.226;2022-12-10T10:40:23;101224.19;;;-1.46;100.00
76024;BME280;64719;52.124;6.226;2022-12-10T10:42:54;101224.75;;;-1.42;100.00
76024;BME280;64719;52.124;6.226;2022-12-10T10:45:37;101232.03;;;-1.44;100.00
76024;BME280;64719;52.124;6.226;2022-12-10T10:48:10;101229.34;;;-1.44;100.00
76024;BME280;64719;52.124;6.226;2022-12-10T10:50:39;101228.38;;;-1.43;100.00
76024;BME280;64719;52.124;6.226;2022-12-10T10:53:30;101236.06;;;-1.40;100.00
76024;BME280;64719;52.124;6.226;2022-12-10T10:56:01;101230.84;;;-1.32;100.00
76024;BME280;64719;52.124;6.226;2022-12-10T10:58:31;101237.44;;;-1.27;100.00
76024;BME280;64719;52.124;6.226;2022-12-10T11:01:00;101234.47;;;-1.24;100.00
76024;BME280;64719;52.124;6.226;2022-12-10T11:03:30;101233.75;;;-1.16;100.00
76024;BME280;64719;52.124;6.226;2022-12-10T11:05:58;101228.28;;;-1.15;100.00
76024;BME280;64719;52.124;6.226;2022-12-10T11:08:28;101219.16;;;-1.12;100.00
76024;BME280;64719;52.124;6.226;2022-12-10T11:10:58;101227.25;;;-1.04;100.00
76024;BME280;64719;52.124;6.226;2022-12-10T11:13:28;101227.75;;;-1.01;100.00
76024;BME280;64719;52.124;6.226;2022-12-10T11:15:58;101228.34;;;-1.07;100.00
76024;BME280;64719;52.124;6.226;2022-12-10T11:18:31;101232.31;;;-1.11;100.00
76024;BME280;64719;52.124;6.226;2022-12-10T11:21:01;101220.22;;;-1.05;100.00
76024;BME280;64719;52.124;6.226;2022-12-10T11:23:29;101225.22;;;-0.93;100.00
76024;BME280;64719;52.124;6.226;2022-12-10T11:26:03;101221.41;;;-0.90;100.00
76024;BME280;64719;52.124;6.226;2022-12-10T11:28:43;101217.69;;;-0.80;100.00
76024;BME280;64719;52.124;6.226;2022-12-10T11:31:26;101215.28;;;-0.73;100.00
76024;BME280;64719;52.124;6.226;2022-12-10T11:34:01;101206.06;;;-0.79;100.00
76024;BME280;64719;52.124;6.226;2022-12-10T11:36:38;101200.97;;;-0.72;100.00
76024;BME280;64719;52.124;6.226;2022-12-10T11:39:17;101210.09;;;-0.75;100.00
76024;BME280;64719;52.124;6.226;2022-12-10T11:41:49;101206.44;;;-0.74;99.98
76024;BME280;64719;52.124;6.226;2022-12-10T11:44:26;101204.63;;;-0.73;100.00
76024;BME280;64719;52.124;6.226;2022-12-10T11:50:07;101204.16;;;-0.69;100.00
76024;BME280;64719;52.124;6.226;2022-12-10T11:52:47;101202.50;;;-0.70;100.00
76024;BME280;64719;52.124;6.226;2022-12-10T11:55:26;101204.09;;;-0.59;100.00
76024;BME280;64719;52.124;6.226;2022-12-10T11:58:12;101195.97;;;-0.58;100.00
76024;BME280;64719;52.124;6.226;2022-12-10T12:00:46;101202.28;;;-0.41;99.91
76024;BME280;64719;52.124;6.226;2022-12-10T12:03:39;101206.00;;;-0.34;99.93
76024;BME280;64719;52.124;6.226;2022-12-10T12:06:36;101198.63;;;-0.40;99.54
76024;BME280;64719;52.124;6.226;2022-12-10T12:09:13;101205.16;;;-0.35;98.97
76024;BME280;64719;52.124;6.226;2022-12-10T12:11:57;101200.81;;;-0.36;99.34
76024;BME280;64719;52.124;6.226;2022-12-10T12:14:33;101206.69;;;-0.32;99.37
76024;BME280;64719;52.124;6.226;2022-12-10T12:17:04;101197.94;;;-0.42;99.38
76024;BME280;64719;52.124;6.226;2022-12-10T12:19:37;101202.66;;;-0.54;99.19
76024;BME280;64719;52.124;6.226;2022-12-10T12:22:25;101202.91;;;-0.47;99.92
76024;BME280;64719;52.124;6.226;2022-12-10T12:24:55;101207.69;;;-0.51;99.52
76024;BME280;64719;52.124;6.226;2022-12-10T12:27:27;101201.66;;;-0.53;99.39
76024;BME280;64719;52.124;6.226;2022-12-10T12:30:05;101203.72;;;-0.47;99.08
76024;BME280;64719;52.124;6.226;2022-12-10T12:32:40;101198.19;;;-0.53;99.13
76024;BME280;64719;52.124;6.226;2022-12-10T12:35:12;101203.09;;;-0.41;99.84
76024;BME280;64719;52.124;6.226;2022-12-10T12:37:46;101201.53;;;-0.34;99.14
76024;BME280;64719;52.124;6.226;2022-12-10T12:40:23;101198.94;;;-0.43;99.78
76024;BME280;64719;52.124;6.226;2022-12-10T12:42:56;101208.44;;;-0.41;99.42
76024;BME280;64719;52.124;6.226;2022-12-10T12:45:34;101205.63;;;-0.39;99.12
76024;BME280;64719;52.124;6.226;2022-12-10T12:48:11;101212.34;;;-0.35;98.93
76024;BME280;64719;52.124;6.226;2022-12-10T12:50:43;101213.72;;;-0.49;98.85
76024;BME280;64719;52.124;6.226;2022-12-10T12:53:14;101206.84;;;-0.51;99.23
76024;BME280;64719;52.124;6.226;2022-12-10T12:55:47;101208.84;;;-0.53;99.52